Aviation Digital Data Service (ADDS)

Output produced by METARs form (1817 UTC 24 June 2019)
found at http://www.aviationweather.gov/metar/data/
 
Forecast for: LHBP (BUDAPEST/FERIHEG, HU)
Text: TAF LHBP 241715Z 2418/2518 06010KT CAVOK
Forecast period: 1800 UTC 24 June 2019 to 1800 UTC 25 June 2019
Forecast type: FROM: standard forecast or significant change
Winds: from the ENE (60 degrees) at 12 MPH (10 knots; 5.1 m/s)
Visibility: 6 or more miles 10+ km)
Ceiling: unknown
Clouds: missing
Weather: NSW  (no significant weather)
Text: BECMG 2418/2421 35005KT
Forecast period: 1800 UTC 24 June 2019 to 0400 UTC 25 June 2019
Forecast type: BECOMING: Conditions expected to become as follows by 2100 UTC 24 June 2019
Winds: from the N (350 degrees) at 6 MPH (5 knots; 2.6 m/s)
Visibility: 6 or more miles 10+ km)
Ceiling: unknown
Clouds: missing
Weather: NSW  (no significant weather)
Text: BECMG 2504/2506 07008KT
Forecast period: 0400 to 1800 UTC 25 June 2019
Forecast type: BECOMING: Conditions expected to become as follows by 0600 UTC 25 June 2019
Winds: from the ENE (70 degrees) at 9 MPH (8 knots; 4.1 m/s)
Visibility: 6 or more miles 10+ km)
Ceiling: unknown
Clouds: missing
Weather: NSW  (no significant weather)